createdAt,value
2022-10-01T00:00:53.356Z,100003.25
2022-10-01T00:03:23.633Z,100005.28
2022-10-01T00:06:00.187Z,100011.31
2022-10-01T00:08:28.487Z,100004.91
2022-10-01T00:10:56.227Z,100003.25
2022-10-01T00:13:24.216Z,100008.78
2022-10-01T00:15:52.018Z,100014.09
2022-10-01T00:18:19.812Z,99999.97
2022-10-01T00:20:48.903Z,100000.94
2022-10-01T00:23:16.793Z,100007.31
2022-10-01T00:25:44.620Z,100004.75
2022-10-01T00:28:13.062Z,100002.84
2022-10-01T00:30:48.077Z,99996.78
2022-10-01T00:33:15.858Z,99995.34
2022-10-01T00:35:43.554Z,99982.06
2022-10-01T00:38:14.057Z,99979.41
2022-10-01T00:40:42.283Z,99971.72
2022-10-01T00:43:23.046Z,99971.94
2022-10-01T00:45:51.561Z,99970.84
2022-10-01T00:48:19.482Z,99969.16
2022-10-01T00:50:59.981Z,99974.47
2022-10-01T00:53:29.381Z,99972.66
2022-10-01T00:56:00.030Z,99973.38
2022-10-01T00:58:28.269Z,99973.28
2022-10-01T01:01:08.125Z,99975.09
2022-10-01T01:03:36.061Z,99965.06
2022-10-01T01:06:04.310Z,99962.78
2022-10-01T01:08:33.433Z,99970.63
2022-10-01T01:11:12.230Z,99965.94
2022-10-01T01:13:50.251Z,99957.75
2022-10-01T01:16:26.032Z,99970.91
2022-10-01T01:19:01.843Z,99965.47
2022-10-01T01:21:33.561Z,99962.72
2022-10-01T01:24:43.753Z,99973.91
2022-10-01T01:27:29.848Z,99968.47
2022-10-01T01:30:15.027Z,99964.00
2022-10-01T01:32:50.574Z,99961.25
2022-10-01T01:35:24.218Z,99953.06
2022-10-01T01:37:57.297Z,99952.78
2022-10-01T01:40:32.729Z,99950.03
2022-10-01T01:43:05.493Z,99940.25
2022-10-01T01:45:38.405Z,99933.72
2022-10-01T01:48:09.882Z,99931.22
2022-10-01T01:50:43.411Z,99920.59
2022-10-01T01:53:12.314Z,99926.47
2022-10-01T01:55:40.573Z,99932.50
2022-10-01T01:58:08.942Z,99927.09
2022-10-01T02:00:44.062Z,99927.81
2022-10-01T02:03:12.161Z,99929.38
2022-10-01T02:05:45.581Z,99925.88
2022-10-01T02:08:37.998Z,99926.38
2022-10-01T02:11:16.739Z,99920.06
2022-10-01T02:13:52.797Z,99919.00
2022-10-01T02:16:28.639Z,99914.63
2022-10-01T02:19:01.716Z,99907.50
2022-10-01T02:21:34.313Z,99908.94
2022-10-01T02:24:08.461Z,99913.31
2022-10-01T02:26:38.178Z,99916.56
2022-10-01T02:29:09.288Z,99917.41
2022-10-01T02:31:38.848Z,99911.81
2022-10-01T02:34:12.398Z,99916.06
2022-10-01T02:36:42.613Z,99906.03
2022-10-01T02:39:12.939Z,99904.94
2022-10-01T02:41:43.768Z,99898.63
2022-10-01T02:44:15.919Z,99894.91
2022-10-01T02:46:49.662Z,99885.84
2022-10-01T02:49:17.651Z,99882.06
2022-10-01T02:51:56.007Z,99876.53
2022-10-01T02:54:30.071Z,99872.66
2022-10-01T02:57:16.766Z,99873.34
2022-10-01T02:59:44.540Z,99865.97
2022-10-01T03:02:13.848Z,99859.56
2022-10-01T03:04:41.715Z,99859.88
2022-10-01T03:07:09.581Z,99855.16
2022-10-01T03:09:37.818Z,99847.66
2022-10-01T03:12:06.572Z,99851.16
2022-10-01T03:14:34.335Z,99852.56
2022-10-01T03:17:02.091Z,99855.13
2022-10-01T03:19:31.249Z,99854.84
2022-10-01T03:21:59.041Z,99858.47
2022-10-01T03:24:26.803Z,99856.53
2022-10-01T03:26:55.937Z,99854.59
2022-10-01T03:29:23.893Z,99858.69
2022-10-01T03:31:52.361Z,99851.81
2022-10-01T03:34:20.591Z,99843.97
2022-10-01T03:36:51.904Z,99834.03
2022-10-01T03:39:20.084Z,99847.63
2022-10-01T03:41:47.872Z,99841.72
2022-10-01T03:44:15.581Z,99838.81
2022-10-01T03:46:43.833Z,99840.38
2022-10-01T03:49:11.614Z,99833.38
2022-10-01T03:51:39.314Z,99840.50
2022-10-01T03:54:09.414Z,99834.66
2022-10-01T03:56:37.770Z,99834.94
2022-10-01T03:59:05.561Z,99838.03
2022-10-01T04:01:42.490Z,99825.59
2022-10-01T04:04:10.557Z,99825.59
2022-10-01T04:06:38.359Z,99826.44
2022-10-01T04:09:09.694Z,99831.75
2022-10-01T04:11:37.697Z,99818.84
2022-10-01T04:14:05.686Z,99834.09
2022-10-01T04:16:36.482Z,99834.34
2022-10-01T04:19:04.612Z,99835.19
2022-10-01T04:21:33.140Z,99832.69
2022-10-01T04:24:03.044Z,99835.84
2022-10-01T04:26:32.082Z,99826.19
2022-10-01T04:28:59.749Z,99825.59
2022-10-01T04:31:27.615Z,99820.09
2022-10-01T04:33:57.228Z,99818.25
2022-10-01T04:36:26.259Z,99813.81
2022-10-01T04:38:57.858Z,99820.22
2022-10-01T04:41:26.413Z,99821.44
2022-10-01T04:43:55.563Z,99814.81
2022-10-01T04:46:23.264Z,99815.81
2022-10-01T04:48:51.041Z,99813.28
2022-10-01T04:51:19.019Z,99802.75
2022-10-01T04:53:46.759Z,99807.53
2022-10-01T04:56:14.457Z,99809.47
2022-10-01T04:58:42.282Z,99810.28
2022-10-01T05:01:11.394Z,99793.66
2022-10-01T05:03:39.338Z,99800.78
2022-10-01T05:06:07.224Z,99795.47
2022-10-01T05:08:34.992Z,99791.22
2022-10-01T05:11:03.219Z,99792.09
2022-10-01T05:13:31.809Z,99781.31
2022-10-01T05:15:59.777Z,99779.66
2022-10-01T05:18:28.952Z,99777.81
2022-10-01T05:20:56.658Z,99776.00
2022-10-01T05:23:24.420Z,99764.41
2022-10-01T05:25:52.177Z,99761.03
2022-10-01T05:28:22.681Z,99769.00
2022-10-01T05:30:51.336Z,99768.19
2022-10-01T05:33:19.123Z,99775.56
2022-10-01T05:35:48.185Z,99773.63
2022-10-01T05:38:15.932Z,99773.22
2022-10-01T05:40:46.475Z,99769.72
2022-10-01T05:43:14.950Z,99774.22
2022-10-01T05:45:43.279Z,99783.13
2022-10-01T05:48:11.091Z,99782.19
2022-10-01T05:50:41.004Z,99783.59
2022-10-01T05:53:14.041Z,99785.41
2022-10-01T05:55:41.822Z,99768.22
2022-10-01T05:58:12.098Z,99758.31
2022-10-01T06:00:41.228Z,99740.56
2022-10-01T06:03:12.599Z,99737.91
2022-10-01T06:05:40.637Z,99739.69
2022-10-01T06:08:10.701Z,99758.88
2022-10-01T06:10:39.094Z,99747.53
2022-10-01T06:13:07.222Z,99753.69
2022-10-01T06:15:37.676Z,99746.59
2022-10-01T06:18:06.588Z,99758.88
2022-10-01T06:20:37.529Z,99750.91
2022-10-01T06:23:07.401Z,99743.66
2022-10-01T06:25:38.405Z,99744.38
2022-10-01T06:28:10.160Z,99735.72
2022-10-01T06:30:44.060Z,99728.75
2022-10-01T06:33:13.732Z,99725.94
2022-10-01T06:35:43.776Z,99737.88
2022-10-01T06:38:12.387Z,99739.94
2022-10-01T06:40:42.301Z,99739.41
2022-10-01T06:43:10.670Z,99743.63
2022-10-01T06:45:40.682Z,99747.97
2022-10-01T06:48:08.503Z,99752.03
2022-10-01T06:50:43.321Z,99748.00
2022-10-01T06:53:10.432Z,99749.84
2022-10-01T06:55:38.933Z,99757.16
2022-10-01T06:58:10.858Z,99749.19
2022-10-01T07:00:39.801Z,99753.66
2022-10-01T07:03:10.884Z,99740.22
2022-10-01T07:05:39.432Z,99735.59
2022-10-01T07:08:08.427Z,99743.56
2022-10-01T07:10:37.464Z,99731.28
2022-10-01T07:13:11.501Z,99734.31
2022-10-01T07:15:39.833Z,99717.25
2022-10-01T07:18:09.544Z,99721.75
2022-10-01T07:20:39.896Z,99713.78
2022-10-01T07:23:08.662Z,99704.94
2022-10-01T07:25:36.435Z,99694.16
2022-10-01T07:28:06.654Z,99700.31
2022-10-01T07:30:35.850Z,99716.28
2022-10-01T07:33:03.513Z,99725.13
2022-10-01T07:35:31.261Z,99731.16
2022-10-01T07:37:58.969Z,99736.19
2022-10-01T07:40:27.494Z,99744.03
2022-10-01T07:42:56.819Z,99739.41
2022-10-01T07:45:30.913Z,99741.41
2022-10-01T07:48:02.067Z,99738.03
2022-10-01T07:50:31.441Z,99738.75
2022-10-01T07:53:00.147Z,99736.91
2022-10-01T07:55:37.142Z,99742.13
2022-10-01T07:58:05.609Z,99749.97
2022-10-01T08:00:34.762Z,99742.69
2022-10-01T08:03:03.884Z,99731.63
2022-10-01T08:05:44.065Z,99730.22
2022-10-01T08:08:11.799Z,99722.25
2022-10-01T08:10:39.990Z,99715.38
2022-10-01T08:13:14.584Z,99713.56
2022-10-01T08:15:43.219Z,99715.38
2022-10-01T08:18:12.863Z,99721.78
2022-10-01T08:20:41.017Z,99712.84
2022-10-01T08:23:10.356Z,99712.97
2022-10-01T08:25:38.943Z,99694.09
2022-10-01T08:28:07.483Z,99656.44
2022-10-01T08:30:44.099Z,99639.91
2022-10-01T08:33:14.567Z,99640.59
2022-10-01T08:35:43.570Z,99675.88
2022-10-01T08:38:12.282Z,99702.06
2022-10-01T08:40:45.832Z,99717.22
2022-10-01T08:43:30.278Z,99724.22
2022-10-01T08:46:01.881Z,99747.34
2022-10-01T08:48:41.054Z,99732.41
2022-10-01T08:51:13.398Z,99726.06
2022-10-01T08:53:46.304Z,99719.13
2022-10-01T08:56:22.761Z,99694.19
2022-10-01T08:58:58.062Z,99691.09
2022-10-01T09:01:26.064Z,99676.25
2022-10-01T09:03:55.792Z,99667.84
2022-10-01T09:06:26.225Z,99674.84
2022-10-01T09:09:10.583Z,99687.19
2022-10-01T09:11:50.609Z,99703.00
2022-10-01T09:14:35.771Z,99703.59
2022-10-01T09:17:10.821Z,99709.47
2022-10-01T09:19:56.964Z,99709.63
2022-10-01T09:22:32.796Z,99719.84
2022-10-01T09:25:10.974Z,99728.25
2022-10-01T09:27:39.450Z,99738.34
2022-10-01T09:30:12.575Z,99710.88
2022-10-01T09:32:44.316Z,99714.94
2022-10-01T09:35:25.179Z,99696.31
2022-10-01T09:37:57.937Z,99715.09
2022-10-01T09:40:34.876Z,99714.25
2022-10-01T09:43:03.788Z,99721.81
2022-10-01T09:45:31.545Z,99715.91
2022-10-01T09:48:06.102Z,99711.28
2022-10-01T09:50:40.971Z,99723.22
2022-10-01T09:53:17.082Z,99726.31
2022-10-01T09:55:50.545Z,99730.78
2022-10-01T09:58:22.279Z,99733.72
2022-10-01T10:00:51.629Z,99735.69
2022-10-01T10:03:28.701Z,99723.75
2022-10-01T10:05:59.872Z,99735.53
2022-10-01T10:08:30.980Z,99727.13
2022-10-01T10:11:01.519Z,99732.84
2022-10-01T10:13:35.219Z,99737.78
2022-10-01T10:16:11.057Z,99729.91
2022-10-01T10:18:40.738Z,99739.84
2022-10-01T10:21:16.292Z,99737.44
2022-10-01T10:23:52.207Z,99746.56
2022-10-01T10:26:22.721Z,99745.56
2022-10-01T10:28:50.545Z,99754.56
2022-10-01T10:31:21.029Z,99767.31
2022-10-01T10:33:52.798Z,99760.97
2022-10-01T10:36:27.288Z,99767.31
2022-10-01T10:38:55.255Z,99776.97
2022-10-01T10:41:26.392Z,99778.25
2022-10-01T10:43:59.089Z,99766.16
2022-10-01T10:46:32.078Z,99772.19
2022-10-01T10:49:08.601Z,99779.50
2022-10-01T10:51:53.820Z,99772.19
2022-10-01T10:54:29.284Z,99776.81
2022-10-01T10:57:02.237Z,99774.03
2022-10-01T10:59:32.831Z,99775.81
2022-10-01T11:02:02.349Z,99779.75
2022-10-01T11:04:42.636Z,99779.47
2022-10-01T11:07:14.724Z,99787.16
2022-10-01T11:09:54.558Z,99794.19
2022-10-01T11:12:36.335Z,99789.38
2022-10-01T11:15:27.001Z,99794.00
2022-10-01T11:18:10.604Z,99792.34
2022-10-01T11:20:50.622Z,99789.53
2022-10-01T11:23:54.909Z,99802.72
2022-10-01T11:26:29.602Z,99795.84
2022-10-01T11:29:11.017Z,99807.47
2022-10-01T11:31:49.598Z,99806.38
2022-10-01T11:34:37.823Z,99803.69
2022-10-01T11:37:16.583Z,99802.41
2022-10-01T11:39:48.646Z,99805.66
2022-10-01T11:42:22.148Z,99805.66
2022-10-01T11:45:11.810Z,99805.19
2022-10-01T11:47:44.863Z,99789.41
2022-10-01T11:50:18.489Z,99805.84
2022-10-01T11:52:53.716Z,99806.22
2022-10-01T11:55:56.055Z,99816.31
2022-10-01T11:58:49.146Z,99813.63
2022-10-01T12:01:26.021Z,99818.56
2022-10-01T12:04:04.824Z,99814.34
2022-10-01T12:06:38.037Z,99819.53
2022-10-01T12:09:14.101Z,99809.41
2022-10-01T12:11:49.440Z,99815.44
2022-10-01T12:14:20.915Z,99809.81
2022-10-01T12:16:55.981Z,99804.56
2022-10-01T12:19:27.772Z,99814.09
2022-10-01T12:22:00.692Z,99817.69
2022-10-01T12:24:31.700Z,99817.19
2022-10-01T12:27:26.751Z,99810.31
2022-10-01T12:30:12.998Z,99804.94
2022-10-01T12:33:07.899Z,99797.94
2022-10-01T12:35:53.379Z,99809.69
2022-10-01T12:38:36.156Z,99806.63
2022-10-01T12:41:15.454Z,99805.38
2022-10-01T12:44:10.470Z,99807.72
2022-10-01T12:46:45.547Z,99806.59
2022-10-01T12:49:24.250Z,99795.88
2022-10-01T12:52:00.851Z,99805.22
2022-10-01T12:54:57.392Z,99807.38
2022-10-01T12:57:43.440Z,99817.38
2022-10-01T13:00:19.148Z,99806.31
2022-10-01T13:03:31.477Z,99817.47
2022-10-01T13:06:12.781Z,99819.47
2022-10-01T13:08:53.431Z,99827.66
2022-10-01T13:11:37.403Z,99833.47
2022-10-01T13:14:07.503Z,99831.63
2022-10-01T13:16:43.850Z,99837.66
2022-10-01T13:19:18.029Z,99839.50
2022-10-01T13:22:07.845Z,99829.34
2022-10-01T13:25:00.663Z,99827.16
2022-10-01T13:27:36.694Z,99835.59
2022-10-01T13:30:07.733Z,99833.13
2022-10-01T13:32:51.909Z,99839.22
2022-10-01T13:35:41.111Z,99838.91
2022-10-01T13:38:15.158Z,99839.28
2022-10-01T13:40:43.192Z,99842.31
2022-10-01T13:43:19.240Z,99825.81
2022-10-01T13:45:48.579Z,99823.16
2022-10-01T13:48:23.429Z,99839.28
2022-10-01T13:50:58.453Z,99842.56
2022-10-01T13:53:28.868Z,99838.97
2022-10-01T13:55:57.057Z,99833.22
2022-10-01T13:58:34.148Z,99841.66
2022-10-01T14:01:04.213Z,99840.31
2022-10-01T14:03:44.188Z,99844.19
2022-10-01T14:06:18.927Z,99850.06
2022-10-01T14:08:51.493Z,99852.59
2022-10-01T14:11:42.139Z,99855.09
2022-10-01T14:14:27.673Z,99854.25
2022-10-01T14:16:56.373Z,99856.44
2022-10-01T14:19:28.397Z,99863.16
2022-10-01T14:22:14.769Z,99866.00
2022-10-01T14:25:07.577Z,99864.19
2022-10-01T14:27:45.930Z,99867.03
2022-10-01T14:30:16.524Z,99872.56
2022-10-01T14:33:04.004Z,99874.22
2022-10-01T14:35:36.305Z,99876.56
2022-10-01T14:38:06.244Z,99878.59
2022-10-01T14:40:39.201Z,99873.88
2022-10-01T14:43:17.425Z,99882.47
2022-10-01T14:45:56.966Z,99881.59
2022-10-01T14:48:25.457Z,99875.22
2022-10-01T14:50:56.783Z,99874.56
2022-10-01T14:53:27.852Z,99872.88
2022-10-01T14:55:57.993Z,99873.38
2022-10-01T14:58:34.469Z,99874.38
2022-10-01T15:01:02.795Z,99880.41
2022-10-01T15:03:37.774Z,99885.28
2022-10-01T15:06:14.736Z,99878.25
2022-10-01T15:08:44.506Z,99882.75
2022-10-01T15:11:15.656Z,99879.56
2022-10-01T15:13:47.352Z,99890.97
2022-10-01T15:16:17.497Z,99888.06
2022-10-01T15:18:47.967Z,99887.06
2022-10-01T15:21:22.057Z,99892.06
2022-10-01T15:23:50.180Z,99901.59
2022-10-01T15:26:23.485Z,99896.88
2022-10-01T15:28:51.365Z,99893.53
2022-10-01T15:31:20.134Z,99894.53
2022-10-01T15:33:48.164Z,99899.69
2022-10-01T15:36:19.988Z,99907.28
2022-10-01T15:38:50.520Z,99913.78
2022-10-01T15:41:32.665Z,99917.78
2022-10-01T15:44:05.141Z,99926.16
2022-10-01T15:46:35.681Z,99920.13
2022-10-01T15:49:20.822Z,99926.72
2022-10-01T15:52:07.613Z,99941.28
2022-10-01T15:54:36.535Z,99941.56
2022-10-01T15:57:05.442Z,99948.88
2022-10-01T15:59:34.892Z,99944.91
2022-10-01T16:02:09.516Z,99954.88
2022-10-01T16:04:37.510Z,99944.09
2022-10-01T16:07:06.620Z,99942.03
2022-10-01T16:09:34.313Z,99924.75
2022-10-01T16:12:06.787Z,99936.09
2022-10-01T16:14:39.299Z,99935.88
2022-10-01T16:17:29.245Z,99938.84
2022-10-01T16:19:59.177Z,99948.09
2022-10-01T16:22:31.711Z,99951.88
2022-10-01T16:25:07.897Z,99958.97
2022-10-01T16:27:45.404Z,99962.09
2022-10-01T16:30:21.148Z,99963.25
2022-10-01T16:32:49.439Z,99977.31
2022-10-01T16:35:19.721Z,99977.94
2022-10-01T16:37:50.248Z,99986.44
2022-10-01T16:40:19.179Z,99981.59
2022-10-01T16:42:49.395Z,99979.91
2022-10-01T16:45:19.317Z,99985.41
2022-10-01T16:47:47.465Z,99986.56
2022-10-01T16:50:17.590Z,99998.56
2022-10-01T16:52:45.668Z,100003.22
2022-10-01T16:55:22.503Z,100015.75
2022-10-01T16:57:50.821Z,100006.59
2022-10-01T17:00:21.494Z,100017.31
2022-10-01T17:02:49.444Z,100030.97
2022-10-01T17:05:19.951Z,100038.16
2022-10-01T17:07:47.912Z,100040.81
2022-10-01T17:10:18.575Z,100043.78
2022-10-01T17:12:47.806Z,100048.16
2022-10-01T17:15:18.202Z,100045.63
2022-10-01T17:17:46.009Z,100051.13
2022-10-01T17:20:14.710Z,100048.44
2022-10-01T17:22:43.559Z,100050.69
2022-10-01T17:25:15.988Z,100052.22
2022-10-01T17:27:45.386Z,100051.38
2022-10-01T17:30:13.464Z,100067.25
2022-10-01T17:32:43.011Z,100068.97
2022-10-01T17:35:11.461Z,100078.22
2022-10-01T17:37:39.535Z,100077.06
2022-10-01T17:40:09.261Z,100086.13
2022-10-01T17:42:37.296Z,100084.56
2022-10-01T17:45:09.444Z,100092.59
2022-10-01T17:47:37.374Z,100099.09
2022-10-01T17:50:05.782Z,100110.94
2022-10-01T17:52:33.584Z,100112.31
2022-10-01T17:55:01.391Z,100111.50
2022-10-01T17:57:29.092Z,100122.19
2022-10-01T17:59:56.851Z,100112.59
2022-10-01T18:02:42.922Z,100114.59
2022-10-01T18:05:12.610Z,100116.44
2022-10-01T18:07:40.937Z,100126.28
2022-10-01T18:10:11.347Z,100118.41
2022-10-01T18:12:39.147Z,100127.28
2022-10-01T18:15:07.925Z,100142.50
2022-10-01T18:17:42.924Z,100134.47
2022-10-01T18:20:11.353Z,100147.00
2022-10-01T18:22:39.244Z,100156.56
2022-10-01T18:25:07.454Z,100161.91
2022-10-01T18:27:35.345Z,100166.25
2022-10-01T18:30:10.138Z,100174.28
2022-10-01T18:32:43.532Z,100184.16
2022-10-01T18:35:20.503Z,100193.00
2022-10-01T18:37:52.542Z,100205.56
2022-10-01T18:40:22.701Z,100203.28
2022-10-01T18:42:57.775Z,100211.88
2022-10-01T18:45:45.699Z,100210.59
2022-10-01T18:48:36.446Z,100224.94
2022-10-01T18:51:17.536Z,100231.13
2022-10-01T18:54:05.192Z,100235.66
2022-10-01T18:56:36.432Z,100246.91
2022-10-01T18:59:35.695Z,100251.13
2022-10-01T19:02:20.919Z,100261.69
2022-10-01T19:05:37.085Z,100247.56
2022-10-01T19:08:18.813Z,100258.28
2022-10-01T19:10:51.407Z,100253.75
2022-10-01T19:13:26.004Z,100244.69
2022-10-01T19:16:05.509Z,100259.63
2022-10-01T19:18:48.123Z,100251.47
2022-10-01T19:21:26.201Z,100262.03
2022-10-01T19:24:33.556Z,100270.19
2022-10-01T19:27:10.932Z,100280.00
2022-10-01T19:30:03.595Z,100281.56
2022-10-01T19:32:39.587Z,100288.19
2022-10-01T19:35:16.819Z,100297.63
2022-10-01T19:37:51.296Z,100296.50
2022-10-01T19:40:42.810Z,100306.25
2022-10-01T19:43:18.746Z,100309.19
2022-10-01T19:45:52.295Z,100312.31
2022-10-01T19:48:26.256Z,100310.59
2022-10-01T19:51:00.142Z,100317.94
2022-10-01T19:53:34.461Z,100321.59
2022-10-01T19:56:03.480Z,100326.97
2022-10-01T19:58:33.733Z,100336.66
2022-10-01T20:01:03.841Z,100340.03
2022-10-01T20:03:37.846Z,100331.31
2022-10-01T20:06:10.503Z,100349.91
2022-10-01T20:08:46.858Z,100348.06
2022-10-01T20:11:19.016Z,100348.94
2022-10-01T20:14:37.879Z,100362.44
2022-10-01T20:17:16.150Z,100357.78
2022-10-01T20:20:11.265Z,100358.63
2022-10-01T20:22:50.151Z,100370.31
2022-10-01T20:25:44.825Z,100376.50
2022-10-01T20:28:19.187Z,100379.31
2022-10-01T20:30:58.636Z,100392.69
2022-10-01T20:33:37.173Z,100387.47
2022-10-01T20:36:15.255Z,100387.78
2022-10-01T20:38:48.605Z,100394.97
2022-10-01T20:41:20.663Z,100396.78
2022-10-01T20:43:51.056Z,100407.47
2022-10-01T20:46:34.618Z,100411.16
2022-10-01T20:49:05.420Z,100413.00
2022-10-01T20:51:40.194Z,100411.16
2022-10-01T20:54:11.902Z,100418.03
2022-10-01T20:56:45.449Z,100410.72
2022-10-01T20:59:19.322Z,100417.06
2022-10-01T21:01:59.208Z,100420.72
2022-10-01T21:04:30.333Z,100422.44
2022-10-01T21:07:06.190Z,100422.44
2022-10-01T21:09:40.752Z,100421.44
2022-10-01T21:12:17.853Z,100420.47
2022-10-01T21:14:51.460Z,100423.13
2022-10-01T21:17:39.272Z,100439.19
2022-10-01T21:20:21.311Z,100431.28
2022-10-01T21:23:03.280Z,100440.44
2022-10-01T21:25:42.162Z,100439.75
2022-10-01T21:28:18.591Z,100447.91
2022-10-01T21:31:05.957Z,100452.66
2022-10-01T21:33:35.147Z,100449.41
2022-10-01T21:36:08.384Z,100457.00
2022-10-01T21:38:44.643Z,100459.81
2022-10-01T21:41:27.624Z,100458.97
2022-10-01T21:44:10.677Z,100466.28
2022-10-01T21:46:40.976Z,100477.38
2022-10-01T21:49:12.843Z,100480.19
2022-10-01T21:51:58.540Z,100491.03
2022-10-01T21:54:45.743Z,100499.19
2022-10-01T21:57:29.457Z,100505.38
2022-10-01T22:00:11.035Z,100509.75
2022-10-01T22:02:49.217Z,100509.59
2022-10-01T22:05:24.574Z,100505.25
2022-10-01T22:08:01.368Z,100506.91
2022-10-01T22:10:35.581Z,100510.47
2022-10-01T22:13:07.572Z,100514.56
2022-10-01T22:15:41.756Z,100518.06
2022-10-01T22:18:17.149Z,100524.97
2022-10-01T22:20:47.350Z,100526.66
2022-10-01T22:23:18.913Z,100519.47
2022-10-01T22:25:53.521Z,100528.22
2022-10-01T22:28:26.382Z,100532.59
2022-10-01T22:31:00.554Z,100525.41
2022-10-01T22:33:33.768Z,100525.28
2022-10-01T22:36:09.000Z,100540.34
2022-10-01T22:38:43.150Z,100530.63
2022-10-01T22:41:18.035Z,100542.03
2022-10-01T22:43:45.893Z,100541.88
2022-10-01T22:46:49.978Z,100536.69
2022-10-01T22:49:32.362Z,100534.00
2022-10-01T22:52:13.674Z,100528.66
2022-10-01T22:54:54.819Z,100531.34
2022-10-01T22:57:43.731Z,100558.09
2022-10-01T23:00:14.387Z,100559.63
2022-10-01T23:02:45.287Z,100550.63
2022-10-01T23:05:30.819Z,100544.28
2022-10-01T23:08:06.527Z,100557.56
2022-10-01T23:10:41.819Z,100570.94
2022-10-01T23:13:20.329Z,100560.25
2022-10-01T23:15:56.341Z,100570.06
2022-10-01T23:18:37.558Z,100567.28
2022-10-01T23:21:22.301Z,100582.34
2022-10-01T23:23:58.361Z,100588.66
2022-10-01T23:26:42.013Z,100598.41
2022-10-01T23:29:35.676Z,100601.22
2022-10-01T23:32:17.550Z,100591.03
2022-10-01T23:35:05.828Z,100575.38
2022-10-01T23:37:55.013Z,100586.34
2022-10-01T23:40:26.701Z,100603.38
2022-10-01T23:43:00.787Z,100596.47
2022-10-01T23:45:44.080Z,100611.66
2022-10-01T23:48:17.163Z,100608.16
2022-10-01T23:50:52.412Z,100607.44
2022-10-01T23:53:25.047Z,100608.53
2022-10-01T23:56:18.505Z,100601.50
2022-10-01T23:58:51.216Z,100611.38
